createdAt,value
2022-07-31T00:00:15.327Z,21.30
2022-07-31T00:02:41.995Z,21.20
2022-07-31T00:05:09.026Z,21.11
2022-07-31T00:07:35.750Z,21.11
2022-07-31T00:10:02.864Z,21.06
2022-07-31T00:12:29.530Z,21.05
2022-07-31T00:14:56.339Z,20.98
2022-07-31T00:17:23.017Z,20.89
2022-07-31T00:19:49.744Z,20.84
2022-07-31T00:22:16.393Z,20.85
2022-07-31T00:24:43.103Z,20.85
2022-07-31T00:27:10.834Z,20.81
2022-07-31T00:29:38.750Z,20.77
2022-07-31T00:32:06.000Z,20.70
2022-07-31T00:34:32.773Z,20.63
2022-07-31T00:37:02.416Z,20.60
2022-07-31T00:39:30.988Z,20.55
2022-07-31T00:41:57.767Z,20.51
2022-07-31T00:44:24.663Z,20.48
2022-07-31T00:46:53.040Z,20.46
2022-07-31T00:49:20.090Z,20.42
2022-07-31T00:51:48.105Z,20.42
2022-07-31T00:54:22.377Z,20.39
2022-07-31T00:56:49.859Z,20.34
2022-07-31T00:59:16.899Z,20.28
2022-07-31T01:01:51.646Z,20.26
2022-07-31T01:04:19.658Z,20.21
2022-07-31T01:06:47.476Z,20.19
2022-07-31T01:09:14.947Z,20.20
2022-07-31T01:11:51.041Z,20.21
2022-07-31T01:14:20.188Z,20.19
2022-07-31T01:16:48.925Z,20.18
2022-07-31T01:19:18.650Z,20.19
2022-07-31T01:22:34.743Z,20.08
2022-07-31T01:25:24.506Z,20.01
2022-07-31T01:28:07.557Z,19.98
2022-07-31T01:30:44.332Z,19.92
2022-07-31T01:33:15.047Z,19.89
2022-07-31T01:36:09.310Z,19.86
2022-07-31T01:38:42.487Z,19.84
2022-07-31T01:41:13.730Z,19.80
2022-07-31T01:43:42.146Z,19.79
2022-07-31T01:46:13.210Z,19.76
2022-07-31T01:48:40.938Z,19.78
2022-07-31T01:51:09.457Z,19.75
2022-07-31T01:53:38.998Z,19.72
2022-07-31T01:56:07.333Z,19.75
2022-07-31T01:58:39.233Z,19.75
2022-07-31T02:01:26.942Z,19.70
2022-07-31T02:03:56.518Z,19.67
2022-07-31T02:06:23.532Z,19.70
2022-07-31T02:08:52.833Z,19.66
2022-07-31T02:11:21.824Z,19.62
2022-07-31T02:13:49.234Z,19.57
2022-07-31T02:16:17.994Z,19.51
2022-07-31T02:18:48.297Z,19.48
2022-07-31T02:21:21.663Z,19.46
2022-07-31T02:23:48.498Z,19.45
2022-07-31T02:26:16.133Z,19.43
2022-07-31T02:28:44.945Z,19.42
2022-07-31T02:31:13.311Z,19.41
2022-07-31T02:33:45.242Z,19.40
2022-07-31T02:36:13.509Z,19.35
2022-07-31T02:38:40.913Z,19.29
2022-07-31T02:41:08.422Z,19.27
2022-07-31T02:43:35.478Z,19.24
2022-07-31T02:46:12.577Z,19.23
2022-07-31T02:48:40.199Z,19.22
2022-07-31T02:51:09.858Z,19.24
2022-07-31T02:53:37.915Z,19.23
2022-07-31T02:56:09.949Z,19.19
2022-07-31T02:58:42.012Z,19.18
2022-07-31T03:01:14.534Z,19.22
2022-07-31T03:03:44.521Z,19.22
2022-07-31T03:06:11.602Z,19.22
2022-07-31T03:08:38.631Z,19.18
2022-07-31T03:11:06.275Z,19.13
2022-07-31T03:13:35.451Z,19.08
2022-07-31T03:16:04.187Z,19.06
2022-07-31T03:18:32.188Z,19.06
2022-07-31T03:20:58.913Z,19.02
2022-07-31T03:23:27.843Z,19.03
2022-07-31T03:26:05.820Z,19.04
2022-07-31T03:28:34.480Z,19.06
2022-07-31T03:31:01.603Z,19.11
2022-07-31T03:33:30.776Z,19.09
2022-07-31T03:35:58.061Z,19.03
2022-07-31T03:38:34.911Z,18.98
2022-07-31T03:41:14.469Z,18.98
2022-07-31T03:43:47.651Z,18.97
2022-07-31T03:46:19.235Z,18.89
2022-07-31T03:48:47.567Z,18.85
2022-07-31T03:51:14.499Z,18.81
2022-07-31T03:53:41.792Z,18.79
2022-07-31T03:56:13.394Z,18.83
2022-07-31T03:58:40.270Z,18.87
2022-07-31T04:01:08.319Z,18.82
2022-07-31T04:03:38.156Z,18.87
2022-07-31T04:06:34.431Z,18.78
2022-07-31T04:09:01.599Z,18.72
2022-07-31T04:11:42.627Z,18.71
2022-07-31T04:14:10.022Z,18.73
2022-07-31T04:16:36.953Z,18.71
2022-07-31T04:19:03.733Z,18.70
2022-07-31T04:21:30.486Z,18.65
2022-07-31T04:23:57.190Z,18.62
2022-07-31T04:26:48.757Z,18.57
2022-07-31T04:29:16.273Z,18.55
2022-07-31T04:31:43.023Z,18.56
2022-07-31T04:34:14.057Z,18.61
2022-07-31T04:36:41.145Z,18.61
2022-07-31T04:39:07.999Z,18.57
2022-07-31T04:41:34.843Z,18.57
2022-07-31T04:44:01.603Z,18.56
2022-07-31T04:46:40.714Z,18.59
2022-07-31T04:49:07.557Z,18.57
2022-07-31T04:51:34.358Z,18.58
2022-07-31T04:54:01.134Z,18.59
2022-07-31T04:56:44.697Z,18.64
2022-07-31T04:59:14.155Z,18.61
2022-07-31T05:01:44.725Z,18.64
2022-07-31T05:04:13.760Z,18.69
2022-07-31T05:06:44.534Z,18.68
2022-07-31T05:09:18.496Z,18.69
2022-07-31T05:11:47.401Z,18.75
2022-07-31T05:14:16.706Z,18.79
2022-07-31T05:16:43.998Z,18.80
2022-07-31T05:19:13.813Z,18.83
2022-07-31T05:22:02.314Z,18.84
2022-07-31T05:24:49.721Z,18.89
2022-07-31T05:27:17.074Z,18.96
2022-07-31T05:29:43.773Z,19.02
2022-07-31T05:32:11.440Z,19.09
2022-07-31T05:34:38.378Z,19.11
2022-07-31T05:37:05.411Z,19.14
2022-07-31T05:39:35.455Z,19.18
2022-07-31T05:42:20.776Z,19.22
2022-07-31T05:44:59.500Z,19.26
2022-07-31T05:47:26.545Z,19.30
2022-07-31T05:50:09.343Z,19.37
2022-07-31T05:52:36.794Z,19.41
2022-07-31T05:55:21.692Z,19.48
2022-07-31T05:58:16.920Z,19.55
2022-07-31T06:00:47.652Z,19.61
2022-07-31T06:03:14.676Z,19.70
2022-07-31T06:05:57.934Z,19.77
2022-07-31T06:08:26.349Z,19.84
2022-07-31T06:10:53.446Z,19.89
2022-07-31T06:13:24.429Z,19.94
2022-07-31T06:15:53.602Z,19.98
2022-07-31T06:18:20.944Z,20.03
2022-07-31T06:20:47.873Z,20.07
2022-07-31T06:23:22.798Z,20.12
2022-07-31T06:26:04.851Z,20.22
2022-07-31T06:28:47.954Z,20.28
2022-07-31T06:31:21.738Z,20.34
2022-07-31T06:33:51.056Z,20.41
2022-07-31T06:36:21.312Z,20.45
2022-07-31T06:38:57.885Z,20.51
2022-07-31T06:41:46.380Z,20.56
2022-07-31T06:44:28.961Z,20.61
2022-07-31T06:47:17.194Z,20.63
2022-07-31T06:50:05.771Z,20.71
2022-07-31T06:52:50.926Z,20.76
2022-07-31T06:55:18.157Z,20.80
2022-07-31T06:57:44.856Z,20.86
2022-07-31T07:00:19.783Z,20.91
2022-07-31T07:02:48.830Z,20.97
2022-07-31T07:05:15.942Z,21.01
2022-07-31T07:07:42.998Z,21.08
2022-07-31T07:10:09.769Z,21.12
2022-07-31T07:13:05.616Z,21.19
2022-07-31T07:15:36.017Z,21.24
2022-07-31T07:18:03.068Z,21.28
2022-07-31T07:20:41.087Z,21.33
2022-07-31T07:23:07.958Z,21.37
2022-07-31T07:26:07.446Z,21.46
2022-07-31T07:28:35.694Z,21.49
2022-07-31T07:31:03.778Z,21.53
2022-07-31T07:33:41.533Z,21.59
2022-07-31T07:36:23.951Z,21.67
2022-07-31T07:39:14.107Z,21.77
2022-07-31T07:41:43.219Z,21.81
2022-07-31T07:44:09.979Z,21.86
2022-07-31T07:46:37.569Z,21.91
2022-07-31T07:49:06.757Z,21.98
2022-07-31T07:51:33.623Z,22.03
2022-07-31T07:54:12.014Z,22.09
2022-07-31T07:57:17.731Z,22.16
2022-07-31T08:00:05.617Z,22.22
2022-07-31T08:03:47.020Z,22.27
2022-07-31T08:05:39.464Z,22.38
2022-07-31T08:08:06.287Z,22.42
2022-07-31T08:10:48.227Z,22.48
2022-07-31T08:13:19.894Z,22.56
2022-07-31T08:16:12.561Z,22.75
2022-07-31T08:18:44.740Z,22.87
2022-07-31T08:21:11.838Z,22.94
2022-07-31T08:23:38.565Z,22.99
2022-07-31T08:26:08.376Z,23.03
2022-07-31T08:28:36.101Z,23.08
2022-07-31T08:31:03.290Z,23.14
2022-07-31T08:33:33.146Z,23.25
2022-07-31T08:36:00.842Z,23.38
2022-07-31T08:38:28.710Z,23.47
2022-07-31T08:41:34.670Z,23.55
2022-07-31T08:44:04.334Z,23.61
2022-07-31T08:46:37.658Z,23.68
2022-07-31T08:49:05.320Z,23.75
2022-07-31T08:51:51.153Z,23.77
2022-07-31T08:54:54.714Z,23.82
2022-07-31T08:57:23.555Z,23.86
2022-07-31T08:59:52.464Z,23.90
2022-07-31T09:02:19.580Z,23.96
2022-07-31T09:05:13.207Z,24.03
2022-07-31T09:07:40.926Z,24.04
2022-07-31T09:10:27.792Z,24.12
2022-07-31T09:12:56.135Z,24.18
2022-07-31T09:15:29.966Z,24.24
2022-07-31T09:18:00.102Z,24.33
2022-07-31T09:20:29.338Z,24.37
2022-07-31T09:23:07.719Z,24.45
2022-07-31T09:25:37.981Z,24.48
2022-07-31T09:28:06.506Z,24.51
2022-07-31T09:30:34.733Z,24.54
2022-07-31T09:33:20.227Z,24.56
2022-07-31T09:36:14.829Z,24.56
2022-07-31T09:38:45.981Z,24.63
2022-07-31T09:41:57.973Z,24.67
2022-07-31T09:45:04.395Z,24.77
2022-07-31T09:47:33.426Z,24.87
2022-07-31T09:50:05.570Z,24.92
2022-07-31T09:52:33.429Z,24.98
2022-07-31T09:55:14.279Z,25.02
2022-07-31T09:57:56.110Z,25.17
2022-07-31T10:00:25.019Z,25.25
2022-07-31T10:02:57.357Z,25.37
2022-07-31T10:05:27.627Z,25.44
2022-07-31T10:08:00.171Z,25.47
2022-07-31T10:10:44.124Z,25.52
2022-07-31T10:13:31.211Z,25.54
2022-07-31T10:16:00.056Z,25.54
2022-07-31T10:19:03.624Z,25.57
2022-07-31T10:21:36.311Z,25.60
2022-07-31T10:24:10.506Z,25.71
2022-07-31T10:26:59.660Z,25.80
2022-07-31T10:29:25.595Z,25.88
2022-07-31T10:31:52.377Z,25.93
2022-07-31T10:34:21.676Z,25.92
2022-07-31T10:37:23.003Z,25.94
2022-07-31T10:40:40.568Z,26.00
2022-07-31T10:43:10.213Z,26.08
2022-07-31T10:45:53.995Z,26.15
2022-07-31T10:48:52.775Z,26.20
2022-07-31T10:51:50.898Z,26.20
2022-07-31T10:54:40.606Z,26.23
2022-07-31T10:57:34.662Z,26.27
2022-07-31T11:00:38.101Z,26.35
2022-07-31T11:03:14.688Z,26.36
2022-07-31T11:06:03.287Z,26.39
2022-07-31T11:08:57.411Z,26.43
2022-07-31T11:11:47.370Z,26.43
2022-07-31T11:14:43.235Z,26.41
2022-07-31T11:18:23.841Z,26.42
2022-07-31T11:20:32.151Z,26.54
2022-07-31T11:23:06.687Z,26.51
2022-07-31T11:25:35.970Z,26.61
2022-07-31T11:28:24.855Z,26.71
2022-07-31T11:30:53.871Z,26.78
2022-07-31T11:33:42.198Z,26.82
2022-07-31T11:36:11.117Z,26.90
2022-07-31T11:38:39.224Z,26.95
2022-07-31T11:41:07.849Z,27.11
2022-07-31T11:43:37.710Z,27.11
2022-07-31T11:46:06.102Z,27.12
2022-07-31T11:48:43.530Z,27.18
2022-07-31T11:51:18.524Z,27.21
2022-07-31T11:53:45.839Z,27.21
2022-07-31T11:56:18.878Z,27.19
2022-07-31T11:58:53.039Z,27.16
2022-07-31T12:01:20.089Z,27.19
2022-07-31T12:03:46.906Z,27.19
2022-07-31T12:06:18.600Z,27.19
2022-07-31T12:08:47.038Z,27.18
2022-07-31T12:11:14.548Z,27.17
2022-07-31T12:13:45.641Z,27.14
2022-07-31T12:16:12.363Z,27.20
2022-07-31T12:18:59.402Z,27.22
2022-07-31T12:21:34.566Z,27.29
2022-07-31T12:24:01.862Z,27.38
2022-07-31T12:26:33.283Z,27.42
2022-07-31T12:29:05.625Z,27.48
2022-07-31T12:31:44.814Z,27.51
2022-07-31T12:34:11.657Z,27.56
2022-07-31T12:36:38.281Z,27.64
2022-07-31T12:39:05.462Z,27.69
2022-07-31T12:41:42.203Z,27.75
2022-07-31T12:44:14.434Z,27.88
2022-07-31T12:46:41.534Z,27.95
2022-07-31T12:49:08.586Z,27.93
2022-07-31T12:51:46.659Z,27.92
2022-07-31T12:54:17.903Z,27.91
2022-07-31T12:56:45.451Z,27.94
2022-07-31T12:59:12.330Z,28.00
2022-07-31T13:01:39.841Z,28.10
2022-07-31T13:04:07.999Z,28.23
2022-07-31T13:06:44.821Z,28.25
2022-07-31T13:09:11.470Z,28.25
2022-07-31T13:11:46.388Z,28.24
2022-07-31T13:14:18.900Z,28.25
2022-07-31T13:16:46.837Z,28.30
2022-07-31T13:19:14.123Z,28.34
2022-07-31T13:21:48.288Z,28.41
2022-07-31T13:24:16.845Z,28.47
2022-07-31T13:26:45.315Z,28.47
2022-07-31T13:29:12.474Z,28.44
2022-07-31T13:31:39.426Z,28.41
2022-07-31T13:34:06.700Z,28.37
2022-07-31T13:36:38.895Z,28.35
2022-07-31T13:39:07.526Z,28.37
2022-07-31T13:41:35.540Z,28.38
2022-07-31T13:44:03.144Z,28.49
2022-07-31T13:46:30.258Z,28.55
2022-07-31T13:48:59.530Z,28.57
2022-07-31T13:51:29.125Z,28.58
2022-07-31T13:53:56.034Z,28.60
2022-07-31T13:56:39.673Z,28.60
2022-07-31T13:59:11.515Z,28.65
2022-07-31T14:02:02.847Z,28.67
2022-07-31T14:04:30.884Z,28.65
2022-07-31T14:07:00.709Z,28.62
2022-07-31T14:09:27.991Z,28.60
2022-07-31T14:11:54.658Z,28.60
2022-07-31T14:14:23.843Z,28.64
2022-07-31T14:16:50.862Z,28.69
2022-07-31T14:19:17.533Z,28.74
2022-07-31T14:21:56.423Z,28.79
2022-07-31T14:24:25.643Z,28.85
2022-07-31T14:26:52.410Z,28.89
2022-07-31T14:29:19.136Z,28.88
2022-07-31T14:31:45.781Z,28.85
2022-07-31T14:34:12.485Z,28.81
2022-07-31T14:36:39.174Z,28.81
2022-07-31T14:39:05.926Z,28.85
2022-07-31T14:41:32.578Z,28.88
2022-07-31T14:43:59.309Z,28.90
2022-07-31T14:46:26.757Z,28.95
2022-07-31T14:48:53.740Z,29.03
2022-07-31T14:51:20.705Z,29.07
2022-07-31T14:53:47.746Z,29.12
2022-07-31T14:56:17.288Z,29.23
2022-07-31T14:58:58.200Z,29.29
2022-07-31T15:01:26.819Z,29.30
2022-07-31T15:03:58.794Z,29.29
2022-07-31T15:06:50.773Z,29.30
2022-07-31T15:09:16.204Z,29.30
2022-07-31T15:11:58.290Z,29.34
2022-07-31T15:14:30.275Z,29.39
2022-07-31T15:16:57.331Z,29.41
2022-07-31T15:19:24.345Z,29.44
2022-07-31T15:22:16.251Z,29.48
2022-07-31T15:24:42.364Z,29.53
2022-07-31T15:27:13.172Z,29.59
2022-07-31T15:30:04.048Z,29.67
2022-07-31T15:32:27.072Z,29.72
2022-07-31T15:34:54.147Z,29.73
2022-07-31T15:37:20.815Z,29.77
2022-07-31T15:40:01.357Z,29.81
2022-07-31T15:42:34.186Z,29.92
2022-07-31T15:45:01.030Z,29.97
2022-07-31T15:47:27.855Z,29.97
2022-07-31T15:49:54.611Z,29.98
2022-07-31T15:52:21.284Z,29.95
2022-07-31T15:54:51.872Z,29.92
2022-07-31T15:57:21.508Z,29.88
2022-07-31T15:59:49.475Z,29.84
2022-07-31T16:02:16.926Z,29.82
2022-07-31T16:04:51.841Z,29.82
2022-07-31T16:08:30.114Z,29.82
2022-07-31T16:10:15.489Z,29.91
2022-07-31T16:12:43.100Z,29.99
2022-07-31T16:15:12.132Z,30.06
2022-07-31T16:17:38.960Z,30.10
2022-07-31T16:20:11.848Z,30.15
2022-07-31T16:22:40.180Z,30.20
2022-07-31T16:25:08.031Z,30.19
2022-07-31T16:27:34.778Z,30.17
2022-07-31T16:30:02.868Z,30.20
2022-07-31T16:32:30.536Z,30.24
2022-07-31T16:35:00.955Z,30.29
2022-07-31T16:37:50.315Z,30.37
2022-07-31T16:40:30.839Z,30.43
2022-07-31T16:43:48.026Z,30.48
2022-07-31T16:45:50.538Z,30.55
2022-07-31T16:48:17.684Z,30.57
2022-07-31T16:50:44.512Z,30.59
2022-07-31T16:54:10.754Z,30.64
2022-07-31T16:56:00.826Z,30.65
2022-07-31T16:58:28.548Z,30.69
2022-07-31T17:00:55.400Z,30.71
2022-07-31T17:04:00.071Z,30.71
2022-07-31T17:06:10.397Z,30.73
2022-07-31T17:08:38.302Z,30.74
2022-07-31T17:11:05.601Z,30.78
2022-07-31T17:13:32.536Z,30.83
2022-07-31T17:15:59.279Z,30.89
2022-07-31T17:18:26.270Z,30.93
2022-07-31T17:20:56.900Z,30.94
2022-07-31T17:23:42.751Z,30.95
2022-07-31T17:26:21.602Z,30.94
2022-07-31T17:28:50.671Z,30.91
2022-07-31T17:31:18.719Z,30.90
2022-07-31T17:33:54.512Z,30.91
2022-07-31T17:36:28.644Z,30.88
2022-07-31T17:38:56.077Z,30.84
2022-07-31T17:41:24.738Z,30.85
2022-07-31T17:43:53.604Z,30.88
2022-07-31T17:46:34.458Z,30.74
2022-07-31T17:49:04.507Z,30.66
2022-07-31T17:51:31.313Z,30.58
2022-07-31T17:53:59.585Z,30.49
2022-07-31T17:56:27.146Z,30.44
2022-07-31T17:58:55.579Z,30.38
2022-07-31T18:01:25.794Z,30.33
2022-07-31T18:03:55.971Z,30.32
2022-07-31T18:06:22.646Z,30.32
2022-07-31T18:08:49.543Z,30.25
2022-07-31T18:11:16.586Z,30.21
2022-07-31T18:13:47.998Z,30.22
2022-07-31T18:16:17.590Z,30.15
2022-07-31T18:18:44.890Z,30.00
2022-07-31T18:21:12.065Z,29.98
2022-07-31T18:23:41.572Z,29.97
2022-07-31T18:26:14.589Z,29.98
2022-07-31T18:28:41.676Z,29.90
2022-07-31T18:31:25.455Z,29.87
2022-07-31T18:33:55.179Z,29.76
2022-07-31T18:36:21.871Z,29.72
2022-07-31T18:38:48.718Z,29.66
2022-07-31T18:41:16.032Z,29.65
2022-07-31T18:43:42.717Z,29.67
2022-07-31T18:46:09.390Z,29.69
2022-07-31T18:48:36.119Z,29.68
2022-07-31T18:51:05.175Z,29.62
2022-07-31T18:53:33.312Z,29.57
2022-07-31T18:56:00.035Z,29.55
2022-07-31T18:58:26.742Z,29.52
2022-07-31T19:00:55.297Z,29.52
2022-07-31T19:03:23.609Z,29.48
2022-07-31T19:05:52.823Z,29.41
2022-07-31T19:08:20.409Z,29.31
2022-07-31T19:10:49.495Z,29.19
2022-07-31T19:13:18.778Z,29.09
2022-07-31T19:15:51.539Z,28.93
2022-07-31T19:18:24.490Z,28.82
2022-07-31T19:21:23.046Z,28.68
2022-07-31T19:23:44.981Z,28.63
2022-07-31T19:26:11.869Z,28.45
2022-07-31T19:28:39.783Z,28.34
2022-07-31T19:31:07.211Z,28.20
2022-07-31T19:33:34.121Z,28.09
2022-07-31T19:36:02.621Z,28.06
2022-07-31T19:38:31.633Z,28.07
2022-07-31T19:40:58.758Z,28.00
2022-07-31T19:43:25.533Z,27.97
2022-07-31T19:46:00.534Z,27.94
2022-07-31T19:48:43.326Z,27.85
2022-07-31T19:51:11.429Z,27.75
2022-07-31T19:53:38.506Z,27.68
2022-07-31T19:56:06.178Z,27.59
2022-07-31T19:58:34.688Z,27.46
2022-07-31T20:01:02.585Z,27.34
2022-07-31T20:03:29.617Z,27.27
2022-07-31T20:05:57.162Z,27.22
2022-07-31T20:08:23.981Z,27.09
2022-07-31T20:10:51.494Z,27.02
2022-07-31T20:13:18.642Z,26.97
2022-07-31T20:15:51.029Z,26.92
2022-07-31T20:18:27.194Z,26.81
2022-07-31T20:21:15.353Z,26.80
2022-07-31T20:23:42.631Z,26.78
2022-07-31T20:26:11.242Z,26.78
2022-07-31T20:28:40.533Z,26.66
2022-07-31T20:31:08.467Z,26.53
2022-07-31T20:33:56.538Z,26.50
2022-07-31T20:36:28.306Z,26.52
2022-07-31T20:38:55.426Z,26.47
2022-07-31T20:41:22.101Z,26.34
2022-07-31T20:43:48.814Z,26.31
2022-07-31T20:46:16.765Z,26.28
2022-07-31T20:48:45.181Z,26.21
2022-07-31T20:51:19.251Z,26.11
2022-07-31T20:53:50.512Z,25.96
2022-07-31T20:56:17.470Z,25.94
2022-07-31T20:58:49.466Z,25.89
2022-07-31T21:01:20.083Z,25.82
2022-07-31T21:03:47.315Z,25.75
2022-07-31T21:06:14.043Z,25.71
2022-07-31T21:08:41.593Z,25.65
2022-07-31T21:11:08.464Z,25.63
2022-07-31T21:13:36.302Z,25.58
2022-07-31T21:16:03.770Z,25.54
2022-07-31T21:18:34.612Z,25.46
2022-07-31T21:21:02.080Z,25.40
2022-07-31T21:23:28.965Z,25.31
2022-07-31T21:25:58.236Z,25.23
2022-07-31T21:28:27.230Z,25.17
2022-07-31T21:30:56.411Z,25.17
2022-07-31T21:33:27.313Z,25.13
2022-07-31T21:35:57.254Z,25.15
2022-07-31T21:38:24.117Z,25.19
2022-07-31T21:40:51.900Z,25.14
2022-07-31T21:43:22.796Z,25.13
2022-07-31T21:45:57.433Z,25.15
2022-07-31T21:48:28.965Z,25.16
2022-07-31T21:50:55.998Z,25.04
2022-07-31T21:53:23.717Z,24.93
2022-07-31T21:55:50.726Z,24.93
2022-07-31T21:58:17.576Z,24.93
2022-07-31T22:00:44.506Z,24.86
2022-07-31T22:03:11.618Z,24.79
2022-07-31T22:05:57.189Z,24.74
2022-07-31T22:08:24.038Z,24.72
2022-07-31T22:10:51.480Z,24.68
2022-07-31T22:13:19.536Z,24.61
2022-07-31T22:15:51.509Z,24.55
2022-07-31T22:18:34.244Z,24.44
2022-07-31T22:21:03.583Z,24.42
2022-07-31T22:23:30.617Z,24.38
2022-07-31T22:25:57.870Z,24.30
2022-07-31T22:28:25.805Z,24.25
2022-07-31T22:30:53.496Z,24.27
2022-07-31T22:33:20.805Z,24.34
2022-07-31T22:35:58.865Z,24.27
2022-07-31T22:38:28.544Z,24.21
2022-07-31T22:40:55.350Z,24.18
2022-07-31T22:44:10.073Z,24.17
2022-07-31T22:46:11.774Z,24.07
2022-07-31T22:48:41.739Z,23.99
2022-07-31T22:51:09.036Z,23.89
2022-07-31T22:53:37.566Z,23.83
2022-07-31T22:56:04.620Z,23.82
2022-07-31T22:58:31.282Z,23.78
2022-07-31T23:00:58.011Z,23.75
2022-07-31T23:03:24.735Z,23.73
2022-07-31T23:06:02.814Z,23.75
2022-07-31T23:08:38.275Z,23.70
2022-07-31T23:11:04.921Z,23.61
2022-07-31T23:13:31.650Z,23.56
2022-07-31T23:15:58.363Z,23.50
2022-07-31T23:18:26.525Z,23.51
2022-07-31T23:20:53.267Z,23.52
2022-07-31T23:23:19.996Z,23.49
2022-07-31T23:25:46.798Z,23.43
2022-07-31T23:28:13.476Z,23.41
2022-07-31T23:30:40.244Z,23.41
2022-07-31T23:33:06.939Z,23.42
2022-07-31T23:35:33.665Z,23.40
2022-07-31T23:38:00.407Z,23.34
2022-07-31T23:40:27.017Z,23.28
2022-07-31T23:42:53.773Z,23.23
2022-07-31T23:45:20.437Z,23.22
2022-07-31T23:47:48.283Z,23.17
2022-07-31T23:50:16.237Z,23.09
2022-07-31T23:52:43.361Z,22.97
2022-07-31T23:55:10.170Z,22.93
2022-07-31T23:57:37.016Z,22.96
